Time;durP1;ratioP1;P1;durP2;ratioP2;P2;SDS_P1;SDS_P2;PMS_P1;PMS_P2;Temp;Humidity;BMP_temperature;BMP_pressure;BME280_temperature;BME280_humidity;BME280_pressure;Samples;Min_cycle;Max_cycle;Signal;HPM_P1;HPM_P2
2021/04/22 00:00:20;;;;;;;19.77;17.97;;;;;;;4.87;100.00;98030.91;5060888;28;20207;-71
2021/04/22 00:02:47;;;;;;;19.33;17.47;;;;;;;4.87;100.00;98033.53;5058733;28;20207;-71
2021/04/22 00:05:19;;;;;;;19.07;17.17;;;;;;;5.01;100.00;98042.06;5059272;28;20235;-71
2021/04/22 00:07:46;;;;;;;19.10;17.20;;;;;;;4.86;100.00;98039.75;5058321;28;20215;-70
2021/04/22 00:10:15;;;;;;;19.37;17.33;;;;;;;4.73;100.00;98041.69;5059085;28;20210;-70
2021/04/22 00:12:43;;;;;;;19.23;17.27;;;;;;;4.74;100.00;98035.53;5059279;28;20603;-70
2021/04/22 00:15:13;;;;;;;19.77;17.87;;;;;;;4.93;100.00;98034.84;5058216;28;20259;-69
2021/04/22 00:17:40;;;;;;;20.23;18.23;;;;;;;4.83;100.00;98032.13;5060953;28;20203;-71
2021/04/22 00:20:09;;;;;;;19.83;17.83;;;;;;;4.89;100.00;98023.75;5061257;28;20220;-70
2021/04/22 00:22:36;;;;;;;20.40;18.50;;;;;;;4.83;100.00;98028.66;5061051;28;20231;-69
2021/04/22 00:25:03;;;;;;;20.60;18.63;;;;;;;4.79;100.00;98028.09;5060968;28;20198;-70
2021/04/22 00:27:30;;;;;;;20.40;18.30;;;;;;;4.77;100.00;98028.22;5061574;28;20211;-70
2021/04/22 00:29:58;;;;;;;19.47;17.47;;;;;;;4.74;100.00;98030.28;5060690;28;20207;-71
2021/04/22 00:32:25;;;;;;;19.23;17.53;;;;;;;4.82;100.00;98030.47;5062445;28;20239;-70
2021/04/22 00:34:52;;;;;;;19.50;17.60;;;;;;;4.76;100.00;98031.78;5059645;28;20722;-70
2021/04/22 00:37:19;;;;;;;19.20;17.50;;;;;;;4.69;100.00;98029.78;5059019;28;20207;-70
2021/04/22 00:39:46;;;;;;;21.80;19.47;;;;;;;4.61;100.00;98031.25;5062174;28;20207;-70
2021/04/22 00:42:13;;;;;;;19.77;17.80;;;;;;;4.60;100.00;98031.41;5061948;28;20440;-70
2021/04/22 00:44:40;;;;;;;20.67;18.47;;;;;;;4.58;100.00;98028.88;5060230;28;20607;-70
2021/04/22 00:47:09;;;;;;;20.67;18.77;;;;;;;4.56;100.00;98030.81;5061023;28;20205;-70
2021/04/22 00:49:36;;;;;;;19.70;17.77;;;;;;;4.59;100.00;98041.03;5059791;28;20209;-70
2021/04/22 00:52:04;;;;;;;20.17;18.17;;;;;;;4.55;100.00;98044.06;5059257;28;20234;-71
2021/04/22 00:54:32;;;;;;;19.87;17.97;;;;;;;4.54;100.00;98037.97;5059831;28;20607;-70
2021/04/22 00:56:59;;;;;;;18.40;16.60;;;;;;;4.50;100.00;98041.81;5059404;28;20207;-70
2021/04/22 00:59:26;;;;;;;18.60;16.80;;;;;;;4.60;100.00;98037.47;5061882;28;20226;-70
2021/04/22 01:01:53;;;;;;;22.63;18.03;;;;;;;4.57;100.00;98042.97;5057726;28;20635;-71
2021/04/22 01:04:21;;;;;;;20.17;18.17;;;;;;;4.55;100.00;98044.88;5059403;28;20461;-70
2021/04/22 01:06:48;;;;;;;19.33;17.43;;;;;;;4.54;100.00;98050.25;5058941;28;20489;-71
2021/04/22 01:09:15;;;;;;;19.23;17.33;;;;;;;4.54;100.00;98050.25;5061380;28;20215;-70
2021/04/22 01:11:42;;;;;;;19.03;17.23;;;;;;;4.57;100.00;98050.03;5060302;28;20650;-69
2021/04/22 01:14:10;;;;;;;18.83;16.93;;;;;;;4.49;100.00;98048.00;5059033;28;20235;-70
2021/04/22 01:16:37;;;;;;;19.20;17.30;;;;;;;4.47;100.00;98053.38;5058477;28;20203;-70
2021/04/22 01:19:05;;;;;;;20.27;18.47;;;;;;;4.47;100.00;98042.88;5059587;28;20230;-70
2021/04/22 01:21:33;;;;;;;18.67;16.80;;;;;;;4.43;100.00;98053.75;5058466;28;20226;-70
2021/04/22 01:24:00;;;;;;;19.00;17.07;;;;;;;4.44;100.00;98055.44;5055460;28;20233;-70
2021/04/22 01:26:27;;;;;;;18.90;17.03;;;;;;;4.41;100.00;98058.28;5060996;28;20214;-70
2021/04/22 01:28:54;;;;;;;18.77;16.87;;;;;;;4.57;100.00;98060.53;5057940;28;20203;-71
2021/04/22 01:31:24;;;;;;;19.00;17.20;;;;;;;4.67;100.00;98058.81;5060099;28;20246;-70
2021/04/22 01:33:58;;;;;;;19.00;17.20;;;;;;;4.67;100.00;98052.72;5059398;28;20291;-70
2021/04/22 01:36:25;;;;;;;18.33;16.57;;;;;;;4.61;100.00;98069.81;5055895;28;20226;-70
2021/04/22 01:38:53;;;;;;;19.90;18.00;;;;;;;4.58;100.00;98062.19;5060877;28;20675;-70
2021/04/22 01:41:20;;;;;;;18.80;17.00;;;;;;;4.57;100.00;98063.16;5059146;28;20238;-70
2021/04/22 01:43:47;;;;;;;19.47;17.43;;;;;;;4.56;100.00;98064.09;5060453;28;20210;-71
2021/04/22 01:46:14;;;;;;;17.97;16.23;;;;;;;4.52;100.00;98065.28;5060616;28;20707;-71
2021/04/22 01:48:41;;;;;;;18.57;16.77;;;;;;;4.53;100.00;98065.16;5060962;28;20207;-71
2021/04/22 01:51:09;;;;;;;19.30;17.40;;;;;;;4.58;100.00;98068.25;5059225;28;20231;-71
2021/04/22 01:53:36;;;;;;;19.07;17.07;;;;;;;4.55;100.00;98065.88;5060242;28;20594;-69
2021/04/22 01:56:04;;;;;;;17.80;16.10;;;;;;;4.57;100.00;98069.22;5059397;28;20241;-69
2021/04/22 01:58:31;;;;;;;18.53;16.73;;;;;;;4.59;100.00;98066.47;5061518;28;20211;-71
2021/04/22 02:01:00;;;;;;;18.90;17.10;;;;;;;4.52;100.00;98066.13;5057138;28;20227;-70
2021/04/22 02:03:29;;;;;;;19.27;17.37;;;;;;;4.57;100.00;98066.59;5060897;28;20225;-70
2021/04/22 02:05:56;;;;;;;19.70;17.80;;;;;;;4.63;100.00;98075.78;5058431;28;20213;-70
2021/04/22 02:08:24;;;;;;;20.83;18.83;;;;;;;4.88;100.00;98076.38;5060894;28;20741;-71
2021/04/22 02:10:52;;;;;;;19.40;17.57;;;;;;;4.91;100.00;98076.13;5059125;28;20273;-70
2021/04/22 02:13:21;;;;;;;20.10;18.10;;;;;;;4.76;100.00;98078.22;5058892;28;20213;-71
2021/04/22 02:15:52;;;;;;;20.60;18.53;;;;;;;4.88;100.00;98085.09;5058549;28;20203;-69
2021/04/22 02:18:19;;;;;;;19.93;17.97;;;;;;;4.86;100.00;98080.91;5059872;28;20203;-71
2021/04/22 02:20:47;;;;;;;20.07;18.03;;;;;;;4.77;100.00;98075.47;5058456;28;20627;-71
2021/04/22 02:23:22;;;;;;;18.83;17.10;;;;;;;4.72;100.00;98088.13;5057738;28;20675;-71
2021/04/22 02:25:52;;;;;;;18.77;16.97;;;;;;;4.71;100.00;98090.88;5057789;28;20206;-71
2021/04/22 02:28:20;;;;;;;19.13;17.40;;;;;;;4.84;100.00;98094.19;5061112;28;20233;-71
2021/04/22 02:30:50;;;;;;;19.80;18.00;;;;;;;4.86;100.00;98091.44;5059972;28;20287;-70
2021/04/22 02:33:22;;;;;;;19.73;17.83;;;;;;;5.04;100.00;98105.69;5059876;28;20303;-70
2021/04/22 02:35:52;;;;;;;21.20;19.10;;;;;;;5.12;100.00;98105.06;5056688;28;20341;-68
2021/04/22 02:38:19;;;;;;;21.37;19.27;;;;;;;5.07;100.00;98108.06;5058073;28;20203;-69
2021/04/22 02:40:48;;;;;;;21.17;19.03;;;;;;;5.23;100.00;98112.03;5059151;28;20223;-71
2021/04/22 02:43:17;;;;;;;20.90;18.90;;;;;;;5.32;100.00;98110.44;5057021;28;20770;-71
2021/04/22 02:45:46;;;;;;;20.67;18.57;;;;;;;5.15;100.00;98112.69;5058015;28;20245;-70
2021/04/22 02:48:14;;;;;;;20.83;18.73;;;;;;;5.11;100.00;98113.88;5062729;28;20567;-70
2021/04/22 02:50:44;;;;;;;19.93;17.90;;;;;;;5.26;100.00;98109.16;5062143;28;20219;-70
2021/04/22 02:53:11;;;;;;;20.00;18.00;;;;;;;5.16;100.00;98106.47;5062133;28;20497;-70
2021/04/22 02:55:38;;;;;;;19.10;17.13;;;;;;;5.17;100.00;98115.19;5059817;28;20596;-70
2021/04/22 02:58:20;;;;;;;21.33;19.10;;;;;;;5.26;100.00;98114.41;5060200;28;20222;-70
2021/04/22 03:00:48;;;;;;;19.47;17.57;;;;;;;5.22;100.00;98120.88;5062552;28;20233;-69
2021/04/22 03:03:16;;;;;;;20.87;18.97;;;;;;;5.22;100.00;98116.47;5060175;28;20207;-69
2021/04/22 03:05:43;;;;;;;20.13;18.23;;;;;;;5.23;100.00;98117.28;5064587;28;20653;-70
2021/04/22 03:08:10;;;;;;;20.37;18.37;;;;;;;5.22;100.00;98113.84;5060897;28;20207;-70
2021/04/22 03:10:37;;;;;;;20.23;18.27;;;;;;;5.26;100.00;98121.47;5060691;28;20232;-69
2021/04/22 03:13:05;;;;;;;22.77;20.40;;;;;;;5.29;100.00;98127.28;5061828;28;20598;-70
2021/04/22 03:15:32;;;;;;;21.30;19.20;;;;;;;5.28;100.00;98130.06;5062511;28;20223;-70
2021/04/22 03:18:01;;;;;;;21.90;19.80;;;;;;;5.39;100.00;98127.38;5063875;28;20207;-69
2021/04/22 03:20:28;;;;;;;24.43;21.43;;;;;;;5.22;100.00;98132.25;5064431;28;20198;-70
2021/04/22 03:22:55;;;;;;;21.17;19.17;;;;;;;5.25;100.00;98140.84;5060970;28;20204;-70
2021/04/22 03:25:24;;;;;;;22.27;19.80;;;;;;;5.33;100.00;98135.78;5059346;28;20207;-69
2021/04/22 03:27:51;;;;;;;22.40;20.10;;;;;;;5.35;100.00;98139.09;5062150;28;20210;-70
2021/04/22 03:30:21;;;;;;;22.43;20.07;;;;;;;5.35;100.00;98133.84;5063072;28;20669;-70
2021/04/22 03:32:48;;;;;;;21.63;19.43;;;;;;;5.30;100.00;98134.25;5062939;28;20642;-70
2021/04/22 03:35:17;;;;;;;22.97;20.57;;;;;;;5.44;100.00;98143.59;5062697;28;20233;-70
2021/04/22 03:37:44;;;;;;;22.73;20.40;;;;;;;5.38;100.00;98138.03;5062700;28;20602;-71
2021/04/22 03:40:13;;;;;;;21.90;19.60;;;;;;;5.44;100.00;98140.13;5062634;28;20211;-71
2021/04/22 03:42:40;;;;;;;21.97;19.03;;;;;;;5.36;100.00;98140.78;5060676;28;20209;-70
2021/04/22 03:45:09;;;;;;;22.73;20.17;;;;;;;5.38;100.00;98152.00;5062617;28;20195;-71
2021/04/22 03:47:36;;;;;;;23.00;20.77;;;;;;;5.30;100.00;98149.16;5062007;28;20697;-70
2021/04/22 03:50:05;;;;;;;22.33;20.07;;;;;;;5.27;100.00;98152.88;5060685;28;20215;-71
2021/04/22 03:52:33;;;;;;;21.03;19.03;;;;;;;5.19;100.00;98145.63;5060620;28;20702;-70
2021/04/22 03:55:00;;;;;;;22.30;20.17;;;;;;;5.19;100.00;98153.53;5062302;28;20226;-70
2021/04/22 03:57:27;;;;;;;22.70;20.00;;;;;;;5.13;100.00;98147.91;5058738;28;20218;-71
2021/04/22 03:59:54;;;;;;;21.47;19.37;;;;;;;5.04;100.00;98149.50;5060996;28;20657;-71
2021/04/22 04:02:21;;;;;;;21.80;19.50;;;;;;;4.99;100.00;98152.53;5058850;28;20219;-70
2021/04/22 04:04:48;;;;;;;23.33;20.40;;;;;;;5.06;100.00;98150.19;5062234;28;20504;-72
2021/04/22 04:07:15;;;;;;;23.27;20.77;;;;;;;5.18;100.00;98149.22;5062569;28;20203;-70
2021/04/22 04:09:43;;;;;;;21.37;19.40;;;;;;;5.10;100.00;98149.00;5061524;28;20207;-70
2021/04/22 04:12:10;;;;;;;20.67;18.47;;;;;;;5.13;100.00;98148.78;5060762;28;20254;-71
2021/04/22 04:14:37;;;;;;;21.00;19.00;;;;;;;5.19;100.00;98150.03;5062963;28;20512;-71
2021/04/22 04:17:04;;;;;;;20.17;18.10;;;;;;;5.13;100.00;98161.06;5059015;28;20199;-70
2021/04/22 04:19:32;;;;;;;21.47;19.33;;;;;;;5.21;100.00;98162.09;5061556;28;20298;-66
2021/04/22 04:21:59;;;;;;;20.30;18.23;;;;;;;5.13;100.00;98161.06;5062191;28;20223;-66
2021/04/22 04:24:26;;;;;;;20.57;18.43;;;;;;;5.22;100.00;98170.81;5060835;28;20771;-70
2021/04/22 04:26:54;;;;;;;19.87;17.97;;;;;;;5.18;100.00;98165.00;5061216;28;20206;-71
2021/04/22 04:29:21;;;;;;;19.03;17.10;;;;;;;5.14;100.00;98171.47;5059994;28;20199;-70
2021/04/22 04:31:48;;;;;;;19.27;17.27;;;;;;;5.20;100.00;98168.31;5062759;28;20227;-71
2021/04/22 04:34:15;;;;;;;19.23;17.10;;;;;;;5.21;100.00;98171.78;5061816;28;20222;-71
2021/04/22 04:36:45;;;;;;;19.37;17.47;;;;;;;5.22;100.00;98171.66;5061598;28;20203;-71
2021/04/22 04:39:13;;;;;;;18.60;16.70;;;;;;;5.20;100.00;98186.72;5061900;28;20205;-70
2021/04/22 04:41:40;;;;;;;22.17;19.83;;;;;;;5.21;100.00;98195.41;5061508;28;21260;-71
2021/04/22 04:44:08;;;;;;;19.47;17.43;;;;;;;5.33;100.00;98194.44;5059740;28;20659;-70
2021/04/22 04:46:36;;;;;;;19.20;17.30;;;;;;;5.37;100.00;98197.63;5057984;28;20199;-70
2021/04/22 04:49:03;;;;;;;17.30;15.57;;;;;;;5.31;100.00;98198.97;5057728;28;20213;-71
2021/04/22 04:51:30;;;;;;;19.20;16.20;;;;;;;5.22;100.00;98213.69;5059634;28;20234;-70
2021/04/22 04:53:57;;;;;;;17.63;15.80;;;;;;;5.19;100.00;98202.59;5059099;28;20517;-70
2021/04/22 04:56:24;;;;;;;17.10;14.93;;;;;;;5.18;100.00;98201.78;5058070;28;20206;-71
2021/04/22 04:58:53;;;;;;;18.00;15.77;;;;;;;5.17;100.00;98207.97;5059009;28;20732;-71
2021/04/22 05:01:21;;;;;;;17.90;15.83;;;;;;;5.15;100.00;98209.91;5059373;28;20241;-71
2021/04/22 05:03:48;;;;;;;17.83;15.53;;;;;;;5.13;100.00;98211.81;5060824;28;20206;-70
2021/04/22 05:06:15;;;;;;;16.30;14.10;;;;;;;5.11;100.00;98218.16;5058507;28;20206;-71
2021/04/22 05:08:43;;;;;;;16.63;14.67;;;;;;;5.17;100.00;98228.16;5061180;28;20222;-71
2021/04/22 05:11:10;;;;;;;14.60;13.10;;;;;;;5.14;100.00;98229.25;5058658;28;20292;-71
2021/04/22 05:13:37;;;;;;;16.00;13.10;;;;;;;5.13;100.00;98237.25;5061582;28;20207;-71
2021/04/22 05:16:05;;;;;;;14.43;12.70;;;;;;;5.09;100.00;98241.09;5058860;28;20225;-70
2021/04/22 05:18:33;;;;;;;16.40;13.20;;;;;;;5.11;100.00;98245.25;5060904;28;20211;-71
2021/04/22 05:21:00;;;;;;;14.93;12.30;;;;;;;5.16;100.00;98253.63;5056833;28;20228;-71
2021/04/22 05:23:27;;;;;;;16.53;12.10;;;;;;;5.16;100.00;98256.25;5055199;28;20233;-71
2021/04/22 05:25:55;;;;;;;15.40;12.13;;;;;;;5.15;100.00;98246.69;5060156;28;20270;-71
2021/04/22 05:28:22;;;;;;;12.80;11.50;;;;;;;5.20;100.00;98252.41;5058419;28;20562;-71
2021/04/22 05:30:49;;;;;;;12.53;11.13;;;;;;;5.31;100.00;98266.47;5056319;28;20245;-70
2021/04/22 05:33:16;;;;;;;16.03;11.27;;;;;;;5.25;100.00;98262.53;5060154;28;20199;-70
2021/04/22 05:35:45;;;;;;;16.30;10.53;;;;;;;5.32;100.00;98268.97;5058802;28;20223;-70
2021/04/22 05:38:12;;;;;;;11.63;9.57;;;;;;;5.35;98.08;98271.34;5059480;28;20195;-70
2021/04/22 05:40:39;;;;;;;10.00;8.37;;;;;;;5.20;95.93;98275.19;5059808;28;20231;-71
2021/04/22 05:43:08;;;;;;;9.60;8.10;;;;;;;5.28;94.82;98282.47;5059197;28;20210;-71
2021/04/22 05:45:36;;;;;;;9.43;7.87;;;;;;;5.22;93.69;98283.78;5060934;28;20203;-70
2021/04/22 05:48:03;;;;;;;11.03;8.40;;;;;;;5.22;92.25;98295.16;5057618;28;20206;-73
2021/04/22 05:50:30;;;;;;;8.20;6.33;;;;;;;5.20;91.30;98289.19;5061644;28;20590;-73
2021/04/22 05:52:58;;;;;;;11.60;7.23;;;;;;;5.06;90.40;98307.81;5059152;28;20325;-70
2021/04/22 05:55:25;;;;;;;7.13;6.40;;;;;;;5.13;89.53;98306.41;5059455;28;20952;-70
2021/04/22 05:57:54;;;;;;;8.27;6.67;;;;;;;5.13;88.28;98295.91;5058560;28;20206;-73
2021/04/22 06:00:22;;;;;;;6.60;5.40;;;;;;;5.15;85.68;98301.00;5058861;28;20706;-70
2021/04/22 06:02:49;;;;;;;13.00;5.97;;;;;;;5.15;85.31;98312.38;5059038;28;20634;-70
2021/04/22 06:05:16;;;;;;;12.90;6.33;;;;;;;5.11;86.25;98313.53;5060056;28;20203;-70
2021/04/22 06:07:45;;;;;;;7.13;5.47;;;;;;;5.17;86.89;98312.22;5059097;28;20210;-70
2021/04/22 06:10:14;;;;;;;6.27;5.37;;;;;;;5.08;84.15;98321.66;5060257;28;20214;-70
2021/04/22 06:12:41;;;;;;;7.97;5.53;;;;;;;5.11;83.90;98325.84;5058966;28;20278;-71
2021/04/22 06:15:12;;;;;;;13.00;5.10;;;;;;;5.13;84.03;98331.81;5058699;28;20214;-71
2021/04/22 06:17:39;;;;;;;10.53;6.77;;;;;;;5.06;84.33;98331.47;5058335;28;20306;-69
2021/04/22 06:20:09;;;;;;;9.10;5.73;;;;;;;5.06;82.87;98334.94;5059037;28;20203;-70
2021/04/22 06:22:36;;;;;;;9.27;5.63;;;;;;;5.14;84.19;98336.97;5062183;28;20307;-70
2021/04/22 06:25:04;;;;;;;8.43;6.60;;;;;;;5.25;84.14;98337.91;5064180;28;20205;-70
2021/04/22 06:27:33;;;;;;;7.13;5.40;;;;;;;5.16;83.01;98344.72;5059570;28;20210;-70
2021/04/22 06:30:00;;;;;;;7.27;5.67;;;;;;;5.27;85.24;98352.56;5063216;28;20618;-70
2021/04/22 06:32:27;;;;;;;8.07;5.70;;;;;;;5.33;83.85;98349.50;5063885;28;20215;-69
2021/04/22 06:34:54;;;;;;;9.37;5.40;;;;;;;5.36;82.77;98348.41;5060625;28;20664;-70
2021/04/22 06:37:22;;;;;;;7.77;5.40;;;;;;;5.52;82.84;98347.19;5064949;28;20417;-70
2021/04/22 06:39:49;;;;;;;8.33;4.80;;;;;;;5.41;82.04;98348.84;5063715;28;20582;-70
2021/04/22 06:42:16;;;;;;;9.83;5.20;;;;;;;5.60;80.80;98350.03;5064335;28;20230;-70
2021/04/22 06:44:44;;;;;;;8.57;5.47;;;;;;;5.62;79.00;98356.00;5063700;28;20203;-70
2021/04/22 06:47:12;;;;;;;10.07;5.03;;;;;;;5.70;76.71;98352.75;5063300;28;20203;-70
2021/04/22 06:49:39;;;;;;;10.03;5.57;;;;;;;6.04;77.58;98363.16;5062192;28;20698;-69
2021/04/22 06:52:06;;;;;;;6.57;4.93;;;;;;;6.19;76.74;98367.19;5061448;28;20269;-70
2021/04/22 06:54:34;;;;;;;9.67;4.77;;;;;;;6.19;72.41;98369.81;5064280;28;20227;-69
2021/04/22 06:57:01;;;;;;;6.17;4.23;;;;;;;6.23;70.67;98371.22;5060951;28;20210;-70
2021/04/22 06:59:28;;;;;;;7.60;4.40;;;;;;;6.08;70.74;98377.78;5063825;28;20568;-71
2021/04/22 07:01:57;;;;;;;4.27;3.83;;;;;;;6.10;69.70;98381.09;5061103;28;20270;-70
2021/04/22 07:04:24;;;;;;;7.67;4.30;;;;;;;6.25;69.83;98389.53;5060092;28;20389;-70
2021/04/22 07:06:51;;;;;;;5.87;4.20;;;;;;;6.27;68.54;98384.97;5063526;28;20213;-70
2021/04/22 07:09:19;;;;;;;6.20;4.07;;;;;;;6.28;69.19;98389.28;5058125;28;20207;-71
2021/04/22 07:11:46;;;;;;;5.63;3.63;;;;;;;6.39;67.88;98383.09;5064111;28;20238;-71
2021/04/22 07:14:13;;;;;;;4.73;3.57;;;;;;;6.53;67.01;98397.75;5060743;28;20207;-70
2021/04/22 07:16:40;;;;;;;6.73;4.40;;;;;;;6.47;65.65;98396.50;5063883;28;20684;-71
2021/04/22 07:19:09;;;;;;;5.43;4.33;;;;;;;5.90;69.02;98398.50;5064231;28;20212;-70
2021/04/22 07:21:36;;;;;;;9.13;4.17;;;;;;;6.26;66.66;98401.75;5060695;28;20981;-69
2021/04/22 07:24:03;;;;;;;5.10;4.03;;;;;;;6.22;68.08;98410.81;5062060;28;20609;-70
2021/04/22 07:26:30;;;;;;;4.73;3.80;;;;;;;6.40;67.31;98413.72;5060935;28;20210;-70
2021/04/22 07:28:57;;;;;;;6.57;4.70;;;;;;;6.31;67.65;98415.34;5063284;28;20234;-71
2021/04/22 07:31:26;;;;;;;7.87;4.33;;;;;;;6.20;69.29;98415.38;5062295;28;20234;-70
2021/04/22 07:33:54;;;;;;;7.00;4.43;;;;;;;6.37;70.08;98412.22;5058941;28;20202;-70
2021/04/22 07:36:21;;;;;;;6.67;4.17;;;;;;;6.51;66.37;98418.13;5062951;28;20223;-71
2021/04/22 07:38:49;;;;;;;8.63;4.20;;;;;;;6.43;65.84;98415.28;5059662;28;20674;-70
2021/04/22 07:41:17;;;;;;;8.40;4.50;;;;;;;6.59;65.74;98409.59;5062507;28;20227;-70
2021/04/22 07:43:44;;;;;;;7.50;4.40;;;;;;;6.22;66.68;98419.56;5062424;28;20203;-70
2021/04/22 07:46:11;;;;;;;6.67;5.20;;;;;;;6.32;66.33;98419.66;5059959;28;20212;-71
2021/04/22 07:48:38;;;;;;;6.47;4.87;;;;;;;6.40;67.17;98418.19;5062016;28;20312;-70
2021/04/22 07:51:05;;;;;;;7.47;3.67;;;;;;;6.31;64.92;98422.41;5062974;28;20323;-71
2021/04/22 07:53:34;;;;;;;7.27;4.17;;;;;;;6.49;66.33;98422.66;5059366;28;20583;-71
2021/04/22 07:56:01;;;;;;;5.27;4.77;;;;;;;6.55;66.15;98426.59;5061970;28;20229;-71
2021/04/22 07:58:31;;;;;;;5.80;3.83;;;;;;;6.50;64.35;98432.25;5059962;28;20457;-71
2021/04/22 08:00:59;;;;;;;8.43;4.43;;;;;;;6.40;63.54;98434.78;5060649;28;20223;-71
2021/04/22 08:03:26;;;;;;;7.33;4.40;;;;;;;6.57;63.64;98441.28;5061396;28;20662;-71
2021/04/22 08:05:55;;;;;;;8.23;4.23;;;;;;;6.56;61.16;98442.25;5062793;28;20191;-70
2021/04/22 08:08:24;;;;;;;8.77;4.00;;;;;;;6.64;61.26;98442.47;5060944;28;20207;-71
2021/04/22 08:10:53;;;;;;;4.73;3.33;;;;;;;6.75;59.77;98440.75;5062937;28;20235;-70
2021/04/22 08:13:21;;;;;;;4.13;3.53;;;;;;;6.88;58.17;98445.81;5059689;28;20213;-71
2021/04/22 08:15:50;;;;;;;4.97;3.40;;;;;;;6.76;57.70;98445.03;5061315;28;20242;-71
2021/04/22 08:18:18;;;;;;;4.73;3.43;;;;;;;6.93;58.24;98441.00;5058009;28;20210;-72
2021/04/22 08:20:45;;;;;;;4.30;3.10;;;;;;;7.01;57.24;98446.44;5060558;28;20230;-71
2021/04/22 08:23:13;;;;;;;7.77;4.10;;;;;;;6.78;56.71;98441.31;5061841;28;20654;-71
2021/04/22 08:25:42;;;;;;;3.80;3.40;;;;;;;6.58;58.27;98445.59;5061699;28;20574;-72
2021/04/22 08:28:12;;;;;;;9.57;3.77;;;;;;;6.43;56.00;98444.25;5060052;28;20230;-71
2021/04/22 08:30:43;;;;;;;3.83;3.43;;;;;;;6.54;55.69;98441.56;5062126;28;20238;-71
2021/04/22 08:33:10;;;;;;;6.37;3.77;;;;;;;6.63;56.68;98443.44;5062897;28;20225;-72
2021/04/22 08:35:38;;;;;;;6.77;3.67;;;;;;;6.73;57.71;98448.75;5062605;28;20223;-72
2021/04/22 08:38:05;;;;;;;6.27;3.80;;;;;;;6.97;56.33;98441.56;5061351;28;20210;-71
2021/04/22 08:40:33;;;;;;;7.33;4.03;;;;;;;6.85;56.06;98441.63;5061833;28;20207;-72
2021/04/22 08:43:00;;;;;;;6.73;3.60;;;;;;;6.98;55.82;98441.44;5061346;28;20627;-71
2021/04/22 08:45:28;;;;;;;4.80;4.23;;;;;;;7.11;55.91;98446.50;5059520;28;20568;-71
2021/04/22 08:47:56;;;;;;;5.87;3.37;;;;;;;7.27;55.65;98455.72;5060767;28;20509;-72
2021/04/22 08:50:25;;;;;;;7.67;3.93;;;;;;;7.31;56.14;98462.41;5063499;28;20207;-72
2021/04/22 08:52:55;;;;;;;10.47;3.67;;;;;;;7.33;53.63;98457.84;5058448;28;20213;-71
2021/04/22 08:55:25;;;;;;;4.40;3.63;;;;;;;7.14;54.04;98462.06;5059072;28;20240;-71
2021/04/22 08:57:52;;;;;;;6.40;3.43;;;;;;;7.18;52.48;98459.97;5058767;28;20306;-71
2021/04/22 09:00:24;;;;;;;6.00;3.83;;;;;;;7.39;52.98;98458.16;5059783;28;20203;-71
2021/04/22 09:02:52;;;;;;;7.70;3.97;;;;;;;7.38;55.11;98463.53;5059859;28;20207;-70
2021/04/22 09:05:21;;;;;;;7.53;3.43;;;;;;;7.57;55.94;98461.97;5057608;28;20294;-71
2021/04/22 09:07:50;;;;;;;6.03;3.73;;;;;;;7.90;55.80;98462.63;5061191;28;20198;-71
2021/04/22 09:10:19;;;;;;;6.90;3.50;;;;;;;7.91;51.48;98462.47;5062719;28;20225;-71
2021/04/22 09:12:58;;;;;;;5.40;3.37;;;;;;;7.72;50.52;98470.34;5059284;28;20218;-71
2021/04/22 09:15:25;;;;;;;7.37;2.60;;;;;;;7.90;48.51;98463.44;5060552;28;20233;-71
2021/04/22 09:17:58;;;;;;;6.77;3.10;;;;;;;7.67;46.84;98478.66;5059814;28;20207;-71
2021/04/22 09:20:31;;;;;;;3.30;3.00;;;;;;;7.77;46.33;98479.53;5061195;28;20627;-71
2021/04/22 09:22:58;;;;;;;5.33;3.30;;;;;;;7.76;44.39;98477.84;5059764;28;20221;-71
2021/04/22 09:25:28;;;;;;;6.23;3.40;;;;;;;8.07;44.92;98475.16;5058158;28;20211;-72
2021/04/22 09:28:02;;;;;;;4.20;3.00;;;;;;;8.31;47.68;98473.94;5058850;28;20321;-71
2021/04/22 09:30:32;;;;;;;5.07;2.80;;;;;;;8.12;47.49;98480.03;5061354;28;20219;-71
2021/04/22 09:33:00;;;;;;;7.87;3.03;;;;;;;8.17;47.58;98474.34;5062120;28;20218;-72
2021/04/22 09:35:28;;;;;;;8.40;3.67;;;;;;;8.20;49.07;98484.63;5058803;28;20222;-71
2021/04/22 09:37:55;;;;;;;6.13;3.93;;;;;;;8.28;49.17;98481.28;5058032;28;20352;-71
2021/04/22 09:40:28;;;;;;;5.37;3.30;;;;;;;8.27;48.91;98488.41;5060101;28;20583;-71
2021/04/22 09:42:57;;;;;;;7.53;3.60;;;;;;;8.12;48.55;98477.38;5059047;28;20225;-72
2021/04/22 09:45:26;;;;;;;6.27;3.13;;;;;;;8.19;48.36;98481.16;5058696;28;20598;-72
2021/04/22 09:48:18;;;;;;;6.60;3.53;;;;;;;8.39;46.10;98478.53;5060286;28;20394;-71
2021/04/22 09:50:45;;;;;;;4.57;2.90;;;;;;;8.30;45.07;98482.84;5058856;28;20233;-71
2021/04/22 09:53:14;;;;;;;4.47;2.50;;;;;;;8.08;43.13;98487.38;5056727;28;20207;-71
2021/04/22 09:55:42;;;;;;;4.47;3.00;;;;;;;8.03;42.13;98486.13;5059350;28;20681;-71
2021/04/22 09:58:09;;;;;;;5.63;3.37;;;;;;;8.21;42.71;98491.59;5056746;28;20785;-70
2021/04/22 10:00:37;;;;;;;5.67;3.10;;;;;;;8.43;42.79;98484.38;5061463;28;20231;-70
2021/04/22 10:03:09;;;;;;;3.67;2.50;;;;;;;8.52;39.25;98492.34;5059890;28;20213;-72
2021/04/22 10:05:39;;;;;;;5.03;3.20;;;;;;;8.34;39.55;98494.78;5056002;28;20207;-71
2021/04/22 10:08:08;;;;;;;4.30;2.40;;;;;;;8.52;37.51;98484.41;5058071;28;20242;-71
2021/04/22 10:10:36;;;;;;;4.67;3.30;;;;;;;8.51;39.23;98485.38;5059212;28;20230;-70
2021/04/22 10:13:06;;;;;;;5.27;3.03;;;;;;;8.44;40.28;98480.75;5058011;28;20304;-71
2021/04/22 10:15:33;;;;;;;6.73;3.40;;;;;;;8.59;38.41;98489.97;5059835;28;20729;-72
2021/04/22 10:18:02;;;;;;;3.80;2.60;;;;;;;8.09;39.77;98489.03;5059050;28;20213;-71
2021/04/22 10:20:31;;;;;;;5.47;2.87;;;;;;;8.19;41.00;98488.25;5059609;28;20207;-70
2021/04/22 10:23:00;;;;;;;3.70;2.87;;;;;;;8.54;39.50;98482.47;5056871;28;20207;-71
2021/04/22 10:25:28;;;;;;;3.40;3.00;;;;;;;8.46;40.47;98481.44;5058793;28;20215;-72
2021/04/22 10:28:02;;;;;;;6.37;2.90;;;;;;;8.51;42.22;98480.09;5057103;28;20213;-71
2021/04/22 10:30:29;;;;;;;5.30;3.40;;;;;;;8.51;42.18;98482.75;5061464;28;20313;-72
2021/04/22 10:32:56;;;;;;;4.17;3.30;;;;;;;8.74;41.81;98487.75;5057782;28;20231;-71
2021/04/22 10:35:26;;;;;;;3.60;2.83;;;;;;;8.76;38.41;98487.59;5057714;28;20229;-71
2021/04/22 10:37:53;;;;;;;5.57;2.90;;;;;;;8.58;37.40;98501.53;5060294;28;20207;-70
2021/04/22 10:40:23;;;;;;;4.47;3.33;;;;;;;8.78;35.99;98509.44;5059773;28;20203;-71
2021/04/22 10:42:53;;;;;;;7.83;3.50;;;;;;;9.24;37.20;98499.91;5058121;28;20210;-71
2021/04/22 10:45:21;;;;;;;4.97;2.90;;;;;;;9.24;38.31;98496.44;5053015;28;20214;-72
2021/04/22 10:47:48;;;;;;;4.63;3.13;;;;;;;9.59;38.47;98499.38;5057333;28;20210;-71
2021/04/22 10:50:17;;;;;;;5.20;3.10;;;;;;;9.99;36.54;98503.50;5059609;28;20563;-71
2021/04/22 10:52:45;;;;;;;5.67;3.73;;;;;;;10.58;36.53;98487.28;5055126;28;20291;-71
2021/04/22 10:55:17;;;;;;;8.13;3.60;;;;;;;11.39;35.45;98489.84;5060130;28;20623;-71
2021/04/22 10:57:45;;;;;;;5.03;3.50;;;;;;;10.96;33.76;98485.25;5057113;28;20206;-71
2021/04/22 11:00:17;;;;;;;5.80;3.37;;;;;;;10.51;34.52;98486.22;5058761;28;20207;-72
2021/04/22 11:02:46;;;;;;;6.10;3.53;;;;;;;10.84;33.81;98489.97;5059489;28;20203;-71
2021/04/22 11:05:27;;;;;;;4.40;3.33;;;;;;;10.85;34.74;98491.63;5057630;28;20200;-72
2021/04/22 11:07:59;;;;;;;3.67;3.07;;;;;;;11.27;33.87;98486.63;5060783;28;20514;-71
2021/04/22 11:10:38;;;;;;;5.20;2.97;;;;;;;11.25;33.52;98489.44;5060310;28;20206;-71
2021/04/22 11:13:14;;;;;;;5.30;4.27;;;;;;;10.54;35.12;98491.22;5062775;28;20374;-71
2021/04/22 11:15:45;;;;;;;9.60;3.50;;;;;;;10.43;34.15;98486.97;5061990;28;20227;-71
2021/04/22 11:18:13;;;;;;;5.90;3.37;;;;;;;10.76;36.62;98479.31;5058966;28;20345;-71
2021/04/22 11:20:41;;;;;;;5.77;3.33;;;;;;;10.90;35.82;98483.22;5062376;28;20241;-70
2021/04/22 11:23:13;;;;;;;4.50;3.53;;;;;;;10.81;34.79;98476.22;5063096;28;20417;-72
2021/04/22 11:25:48;;;;;;;5.63;3.57;;;;;;;11.08;35.50;98475.25;5062297;28;20872;-71
2021/04/22 11:28:17;;;;;;;6.10;3.37;;;;;;;11.11;35.19;98477.56;5062029;28;20206;-71
2021/04/22 11:30:44;;;;;;;3.97;3.50;;;;;;;10.75;34.77;98475.00;5058481;28;20333;-72
2021/04/22 11:33:12;;;;;;;5.43;3.00;;;;;;;10.95;34.35;98469.50;5064507;28;20210;-71